Aviation Digital Data Service (ADDS)

Output produced by METARs form (0019 UTC 17 July 2019)
found at http://www.aviationweather.gov/metar/data/
 
DRRN 170000Z 18003KT CAVOK 30/22 Q1014 BECMG 06020G35KT 0800 SQ BLDU TSRA SCT020CB
TAF DRRN 162300Z 1700/1806 22008KT 9999 FEW030 
     PROB30 
     TEMPO 1700/1706 06020G35KT 0800 SQ BLDU TSRA SCT020 FEW030CB 
     PROB40 
     TEMPO 1714/1720 TS SCT026 FEW030CB
       
TAF DRZA 162300Z 1700/1724 28010KT 8000 NSC 
     PROB40 
     TEMPO 1715/1719 VRB25KT 1000 SQ BLDU TS SCT030 FEW040CB
       
DRRT 170000Z 00000KT CAVOK 26/21 Q1015
DRZR 162100Z 20006KT CAVOK 31/21 Q1014
TAF DRZR 162300Z 1700/1724 26006KT 9999 FEW033 
     PROB40 
     TEMPO 1714/1720 TS SCT026 FEW033CB 
     PROB30 
     TEMPO 1720/1724 10020G35KT 1200 SQ BLDU TSRA BKN020 SCT026CB